createdAt,value
2023-01-18T00:01:11.143Z,11.88
2023-01-18T00:03:38.571Z,10.40
2023-01-18T00:06:07.615Z,11.60
2023-01-18T00:08:36.467Z,11.88
2023-01-18T00:11:08.270Z,10.88
2023-01-18T00:13:35.462Z,13.32
2023-01-18T00:16:16.719Z,11.05
2023-01-18T00:18:49.916Z,10.20
2023-01-18T00:21:16.869Z,10.88
2023-01-18T00:23:43.515Z,11.90
2023-01-18T00:26:11.684Z,12.38
2023-01-18T00:28:39.527Z,10.43
2023-01-18T00:31:24.471Z,9.80
2023-01-18T00:33:51.193Z,9.00
2023-01-18T00:36:18.663Z,11.70
2023-01-18T00:38:51.649Z,10.27
2023-01-18T00:41:18.893Z,10.05
2023-01-18T00:43:45.706Z,10.30
2023-01-18T00:46:18.811Z,10.57
2023-01-18T00:48:46.303Z,11.75
2023-01-18T00:51:15.388Z,10.32
2023-01-18T00:53:44.245Z,10.50
2023-01-18T00:56:13.409Z,11.18
2023-01-18T00:58:40.220Z,11.48
2023-01-18T01:01:08.071Z,13.02
2023-01-18T01:03:54.888Z,12.93
2023-01-18T01:06:44.106Z,11.32
2023-01-18T01:09:31.023Z,12.48
2023-01-18T01:12:17.030Z,12.20
2023-01-18T01:15:05.844Z,11.18
2023-01-18T01:17:55.483Z,12.95
2023-01-18T01:20:41.725Z,10.90
2023-01-18T01:23:39.190Z,9.70
2023-01-18T01:26:07.743Z,11.30
2023-01-18T01:28:35.752Z,10.07
2023-01-18T01:31:03.811Z,10.63
2023-01-18T01:33:31.928Z,10.52
2023-01-18T01:36:01.258Z,11.32
2023-01-18T01:38:28.659Z,11.13
2023-01-18T01:41:07.312Z,10.73
2023-01-18T01:44:09.253Z,8.80
2023-01-18T01:46:41.744Z,10.88
2023-01-18T01:49:23.893Z,10.35
2023-01-18T01:51:58.265Z,8.32
2023-01-18T01:54:40.504Z,12.05
2023-01-18T01:57:12.277Z,9.57
2023-01-18T01:59:45.344Z,9.68
2023-01-18T02:02:12.727Z,7.78
2023-01-18T02:04:44.162Z,9.38
2023-01-18T02:07:11.403Z,9.93
2023-01-18T02:09:38.942Z,9.27
2023-01-18T02:12:06.509Z,8.88
2023-01-18T02:14:33.316Z,8.60
2023-01-18T02:17:35.412Z,8.65
2023-01-18T02:20:24.277Z,9.00
2023-01-18T02:23:22.625Z,8.07
2023-01-18T02:26:20.068Z,9.27
2023-01-18T02:29:06.896Z,9.48
2023-01-18T02:31:40.744Z,8.75
2023-01-18T02:34:20.977Z,7.60
2023-01-18T02:37:10.624Z,9.32
2023-01-18T02:40:11.228Z,9.00
2023-01-18T02:42:58.636Z,9.45
2023-01-18T02:45:50.059Z,9.82
2023-01-18T02:48:22.921Z,9.18
2023-01-18T02:50:50.081Z,9.43
2023-01-18T02:53:16.728Z,9.13
2023-01-18T02:56:04.946Z,10.18
2023-01-18T02:58:56.334Z,8.68
2023-01-18T03:01:28.736Z,8.57
2023-01-18T03:03:59.154Z,10.30
2023-01-18T03:06:29.354Z,8.38
2023-01-18T03:08:58.906Z,10.65
2023-01-18T03:11:45.982Z,8.90
2023-01-18T03:14:39.249Z,7.95
2023-01-18T03:17:29.725Z,8.60
2023-01-18T03:20:09.706Z,7.72
2023-01-18T03:23:09.042Z,8.63
2023-01-18T03:25:44.673Z,8.68
2023-01-18T03:28:40.898Z,8.63
2023-01-18T03:31:31.374Z,10.00
2023-01-18T03:34:09.785Z,9.55
2023-01-18T03:36:41.365Z,8.68
2023-01-18T03:39:14.082Z,8.77
2023-01-18T03:41:43.579Z,7.10
2023-01-18T03:44:36.176Z,7.13
2023-01-18T03:47:05.407Z,7.82
2023-01-18T03:49:34.212Z,8.38
2023-01-18T03:52:26.980Z,9.00
2023-01-18T03:55:09.120Z,6.93
2023-01-18T03:57:42.970Z,8.73
2023-01-18T04:00:11.006Z,7.15
2023-01-18T04:02:37.867Z,7.45
2023-01-18T04:05:05.912Z,8.02
2023-01-18T04:07:33.075Z,7.32
2023-01-18T04:10:00.300Z,9.77
2023-01-18T04:12:27.286Z,7.68
2023-01-18T04:14:54.274Z,8.57
2023-01-18T04:17:20.917Z,8.07
2023-01-18T04:19:47.566Z,8.40
2023-01-18T04:22:14.607Z,8.63
2023-01-18T04:24:41.213Z,7.72
2023-01-18T04:27:08.215Z,7.70
2023-01-18T04:29:34.891Z,8.27
2023-01-18T04:32:01.591Z,8.00
2023-01-18T04:34:28.622Z,8.93
2023-01-18T04:36:55.519Z,7.57
2023-01-18T04:39:22.126Z,6.75
2023-01-18T04:41:48.768Z,7.45
2023-01-18T04:44:16.242Z,6.85
2023-01-18T04:46:43.050Z,7.55
2023-01-18T04:49:15.570Z,6.05
2023-01-18T04:51:43.606Z,6.65
2023-01-18T04:54:11.489Z,5.63
2023-01-18T04:56:38.469Z,6.88
2023-01-18T04:59:05.426Z,6.07
2023-01-18T05:01:33.336Z,5.25
2023-01-18T05:03:59.962Z,7.30
2023-01-18T05:06:27.115Z,6.22
2023-01-18T05:08:53.705Z,5.45
2023-01-18T05:11:23.188Z,4.70
2023-01-18T05:13:49.858Z,5.20
2023-01-18T05:16:19.014Z,6.22
2023-01-18T05:18:46.330Z,6.05
2023-01-18T05:21:14.096Z,4.50
2023-01-18T05:23:41.330Z,6.13
2023-01-18T05:26:14.491Z,5.35
2023-01-18T05:28:42.228Z,5.90
2023-01-18T05:31:09.547Z,5.55
2023-01-18T05:33:36.215Z,6.05
2023-01-18T05:36:02.879Z,5.43
2023-01-18T05:38:29.468Z,6.50
2023-01-18T05:40:56.244Z,5.18
2023-01-18T05:43:24.219Z,6.40
2023-01-18T05:45:50.863Z,7.93
2023-01-18T05:48:17.742Z,6.03
2023-01-18T05:50:46.149Z,6.38
2023-01-18T05:53:15.632Z,6.22
2023-01-18T05:55:42.852Z,6.72
2023-01-18T05:58:09.792Z,5.55
2023-01-18T06:00:36.406Z,4.28
2023-01-18T06:03:03.256Z,5.68
2023-01-18T06:05:29.994Z,5.15
2023-01-18T06:07:56.570Z,5.63
2023-01-18T06:10:23.202Z,5.38
2023-01-18T06:12:50.002Z,4.60
2023-01-18T06:15:17.405Z,6.13
2023-01-18T06:17:47.018Z,5.18
2023-01-18T06:20:14.260Z,6.47
2023-01-18T06:22:41.099Z,5.63
2023-01-18T06:25:10.039Z,4.35
2023-01-18T06:27:38.945Z,5.07
2023-01-18T06:30:06.889Z,6.18
2023-01-18T06:32:33.876Z,4.45
2023-01-18T06:35:00.533Z,4.38
2023-01-18T06:37:27.353Z,4.18
2023-01-18T06:39:53.994Z,4.45
2023-01-18T06:42:20.602Z,3.80
2023-01-18T06:44:47.204Z,4.82
2023-01-18T06:47:18.686Z,4.63
2023-01-18T06:49:46.639Z,5.30
2023-01-18T06:52:13.717Z,4.30
2023-01-18T06:54:40.561Z,4.15
2023-01-18T06:57:07.147Z,5.82
2023-01-18T06:59:33.736Z,4.10
2023-01-18T07:02:00.554Z,5.32
2023-01-18T07:04:27.440Z,4.72
2023-01-18T07:06:54.052Z,4.18
2023-01-18T07:09:20.639Z,3.08
2023-01-18T07:11:47.237Z,4.80
2023-01-18T07:14:14.022Z,5.00
2023-01-18T07:16:40.706Z,5.25
2023-01-18T07:19:07.453Z,4.82
2023-01-18T07:21:34.095Z,3.92
2023-01-18T07:24:00.964Z,4.43
2023-01-18T07:26:27.624Z,5.50
2023-01-18T07:28:56.092Z,6.07
2023-01-18T07:31:23.863Z,4.57
2023-01-18T07:33:50.805Z,5.00
2023-01-18T07:36:17.707Z,6.63
2023-01-18T07:38:44.796Z,5.75
2023-01-18T07:41:14.317Z,3.67
2023-01-18T07:43:42.642Z,2.97
2023-01-18T07:46:12.764Z,4.07
2023-01-18T07:48:39.436Z,3.05
2023-01-18T07:51:08.726Z,4.32
2023-01-18T07:53:36.794Z,4.10
2023-01-18T07:56:05.942Z,4.50
2023-01-18T07:58:32.896Z,6.07
2023-01-18T08:01:11.769Z,5.28
2023-01-18T08:03:39.458Z,4.38
2023-01-18T08:06:07.791Z,5.13
2023-01-18T08:08:36.231Z,5.25
2023-01-18T08:11:05.010Z,5.95
2023-01-18T08:13:32.252Z,6.47
2023-01-18T08:16:01.283Z,5.78
2023-01-18T08:18:28.636Z,5.95
2023-01-18T08:20:55.691Z,5.75
2023-01-18T08:23:22.377Z,4.72
2023-01-18T08:25:49.587Z,4.28
2023-01-18T08:28:16.604Z,5.13
2023-01-18T08:30:46.664Z,5.10
2023-01-18T08:33:13.628Z,5.43
2023-01-18T08:35:47.949Z,4.28
2023-01-18T08:38:16.220Z,5.13
2023-01-18T08:40:43.504Z,5.43
2023-01-18T08:43:11.780Z,4.85
2023-01-18T08:45:38.929Z,4.78
2023-01-18T08:48:08.043Z,3.90
2023-01-18T08:50:36.154Z,3.58
2023-01-18T08:53:04.205Z,3.28
2023-01-18T08:55:31.518Z,5.22
2023-01-18T08:57:58.555Z,3.38
2023-01-18T09:00:30.229Z,7.68
2023-01-18T09:02:58.157Z,3.97
2023-01-18T09:05:25.578Z,4.82
2023-01-18T09:07:55.809Z,4.28
2023-01-18T09:10:22.857Z,4.50
2023-01-18T09:12:51.608Z,3.78
2023-01-18T09:15:19.431Z,3.10
2023-01-18T09:17:46.280Z,4.00
2023-01-18T09:20:13.212Z,4.30
2023-01-18T09:22:39.958Z,3.72
2023-01-18T09:25:06.961Z,4.55
2023-01-18T09:27:33.612Z,4.68
2023-01-18T09:30:00.296Z,4.07
2023-01-18T09:32:27.448Z,3.67
2023-01-18T09:34:55.215Z,5.45
2023-01-18T09:37:22.152Z,4.43
2023-01-18T09:39:52.182Z,4.38
2023-01-18T09:42:25.478Z,4.18
2023-01-18T09:44:58.862Z,4.30
2023-01-18T09:47:39.092Z,3.97
2023-01-18T09:50:17.192Z,4.20
2023-01-18T09:53:12.397Z,3.90
2023-01-18T09:55:51.787Z,5.65
2023-01-18T09:58:32.932Z,6.13
2023-01-18T10:01:06.454Z,4.72
2023-01-18T10:06:17.464Z,5.55
2023-01-18T10:08:53.258Z,4.72
2023-01-18T10:11:47.404Z,5.18
2023-01-18T10:16:40.619Z,5.28
2023-01-18T10:19:22.218Z,6.18
2023-01-18T10:22:13.141Z,5.57
2023-01-18T10:25:01.407Z,4.78
2023-01-18T10:27:50.339Z,5.45
2023-01-18T10:30:43.741Z,5.55
2023-01-18T10:33:21.449Z,5.85
2023-01-18T10:35:52.136Z,6.07
2023-01-18T10:38:25.400Z,4.82
2023-01-18T10:41:02.780Z,5.28
2023-01-18T10:43:31.643Z,5.18
2023-01-18T10:45:58.469Z,4.38
2023-01-18T10:48:31.506Z,5.38
2023-01-18T10:51:06.625Z,5.80
2023-01-18T10:53:37.997Z,5.30
2023-01-18T10:56:27.254Z,5.47
2023-01-18T10:59:01.078Z,4.85
2023-01-18T11:01:33.712Z,5.40
2023-01-18T11:04:22.777Z,6.47
2023-01-18T11:07:03.636Z,5.22
2023-01-18T11:09:38.746Z,6.00
2023-01-18T11:12:33.624Z,5.20
2023-01-18T11:15:15.499Z,5.45
2023-01-18T11:17:56.735Z,4.60
2023-01-18T11:20:49.974Z,5.43
2023-01-18T11:23:21.013Z,5.00
2023-01-18T11:25:58.546Z,4.60
2023-01-18T11:28:46.139Z,4.55
2023-01-18T11:31:15.879Z,5.75
2023-01-18T11:34:01.231Z,5.07
2023-01-18T11:36:40.163Z,6.90
2023-01-18T11:39:28.916Z,6.20
2023-01-18T11:42:23.044Z,5.43
2023-01-18T11:44:58.619Z,4.72
2023-01-18T11:47:34.491Z,5.57
2023-01-18T11:50:21.760Z,5.35
2023-01-18T11:52:56.774Z,5.28
2023-01-18T11:55:31.617Z,5.57
2023-01-18T11:57:59.752Z,6.07
2023-01-18T12:00:31.726Z,4.88
2023-01-18T12:03:13.966Z,5.10
2023-01-18T12:06:25.524Z,4.93
2023-01-18T12:09:03.859Z,5.30
2023-01-18T12:12:19.560Z,4.90
2023-01-18T12:15:04.892Z,5.28
2023-01-18T12:18:12.980Z,4.93
2023-01-18T12:21:06.812Z,4.82
2023-01-18T12:23:52.307Z,5.28
2023-01-18T12:26:38.104Z,4.97
2023-01-18T12:29:16.981Z,4.68
2023-01-18T12:32:06.004Z,5.43
2023-01-18T12:34:49.831Z,5.80
2023-01-18T12:40:22.967Z,6.65
2023-01-18T12:42:57.145Z,5.53
2023-01-18T12:45:32.870Z,7.07
2023-01-18T12:48:08.969Z,6.20
2023-01-18T12:50:39.486Z,5.75
2023-01-18T12:53:24.313Z,5.78
2023-01-18T12:55:53.724Z,4.78
2023-01-18T12:58:24.134Z,5.60
2023-01-18T13:01:14.387Z,6.47
2023-01-18T13:03:47.035Z,7.60
2023-01-18T13:06:16.467Z,5.63
2023-01-18T13:08:54.995Z,5.18
2023-01-18T13:11:41.581Z,6.28
2023-01-18T13:14:25.792Z,6.55
2023-01-18T13:17:13.538Z,5.50
2023-01-18T13:20:00.293Z,6.63
2023-01-18T13:22:50.756Z,5.55
2023-01-18T13:25:58.613Z,7.78
2023-01-18T13:28:26.421Z,6.53
2023-01-18T13:30:56.844Z,6.53
2023-01-18T13:33:26.027Z,7.95
2023-01-18T13:36:01.767Z,6.28
2023-01-18T13:38:40.973Z,7.55
2023-01-18T13:41:13.407Z,6.72
2023-01-18T13:43:41.275Z,5.47
2023-01-18T13:46:07.961Z,5.85
2023-01-18T13:48:57.218Z,6.63
2023-01-18T13:51:42.611Z,8.40
2023-01-18T13:54:22.618Z,8.05
2023-01-18T13:57:01.210Z,6.47
2023-01-18T13:59:35.067Z,6.65
2023-01-18T14:02:19.012Z,7.53
2023-01-18T14:04:45.985Z,6.68
2023-01-18T14:07:21.590Z,9.65
2023-01-18T14:09:50.010Z,8.68
2023-01-18T14:12:46.965Z,9.07
2023-01-18T14:15:39.367Z,7.05
2023-01-18T14:18:32.914Z,9.32
2023-01-18T14:21:39.898Z,9.25
2023-01-18T14:24:34.723Z,7.90
2023-01-18T14:27:02.438Z,8.63
2023-01-18T14:29:28.978Z,9.98
2023-01-18T14:31:57.123Z,11.35
2023-01-18T14:34:30.046Z,9.02
2023-01-18T14:36:57.463Z,8.05
2023-01-18T14:39:24.512Z,9.93
2023-01-18T14:41:55.336Z,8.27
2023-01-18T14:44:31.811Z,9.52
2023-01-18T14:46:59.348Z,9.90
2023-01-18T14:49:37.897Z,9.82
2023-01-18T14:52:07.736Z,8.68
2023-01-18T14:54:35.291Z,10.18
2023-01-18T14:57:04.622Z,10.27
2023-01-18T14:59:33.128Z,7.55
2023-01-18T15:02:02.938Z,10.25
2023-01-18T15:04:39.038Z,9.23
2023-01-18T15:07:13.609Z,10.05
2023-01-18T15:09:42.227Z,11.57
2023-01-18T15:12:11.471Z,10.85
2023-01-18T15:14:43.796Z,12.38
2023-01-18T15:17:21.192Z,9.85
2023-01-18T15:19:53.010Z,12.07
2023-01-18T15:22:23.940Z,11.15
2023-01-18T15:24:51.002Z,9.65
2023-01-18T15:27:20.108Z,11.60
2023-01-18T15:29:49.307Z,9.82
2023-01-18T15:32:20.624Z,8.52
2023-01-18T15:34:49.971Z,10.10
2023-01-18T15:37:31.055Z,10.23
2023-01-18T15:40:22.526Z,13.77
2023-01-18T15:43:00.465Z,15.27
2023-01-18T15:45:31.242Z,11.65
2023-01-18T15:48:07.495Z,11.38
2023-01-18T15:50:55.702Z,12.40
2023-01-18T15:53:52.354Z,11.48
2023-01-18T15:56:25.250Z,10.82
2023-01-18T15:58:55.755Z,11.55
2023-01-18T16:01:29.221Z,8.88
2023-01-18T16:06:29.634Z,9.57
2023-01-18T16:09:00.026Z,9.63
2023-01-18T16:11:31.105Z,9.65
2023-01-18T16:14:00.464Z,9.75
2023-01-18T16:19:04.770Z,11.48
2023-01-18T16:21:51.199Z,10.50
2023-01-18T16:24:34.458Z,11.00
2023-01-18T16:27:12.217Z,9.68
2023-01-18T16:29:49.861Z,9.05
2023-01-18T16:32:25.385Z,11.00
2023-01-18T16:34:55.281Z,10.43
2023-01-18T16:37:22.234Z,12.05
2023-01-18T16:39:49.357Z,9.25
2023-01-18T16:42:18.237Z,10.75
2023-01-18T16:44:47.196Z,10.30
2023-01-18T16:47:15.805Z,8.20
2023-01-18T16:49:44.403Z,10.00
2023-01-18T16:52:15.046Z,8.18
2023-01-18T16:54:43.717Z,11.57
2023-01-18T16:57:21.493Z,11.70
2023-01-18T16:59:49.411Z,12.65
2023-01-18T17:02:16.277Z,9.88
2023-01-18T17:04:44.806Z,9.02
2023-01-18T17:07:11.412Z,11.30
2023-01-18T17:09:47.838Z,15.57
2023-01-18T17:12:15.773Z,15.85
2023-01-18T17:14:42.383Z,23.77
2023-01-18T17:17:10.385Z,18.25
2023-01-18T17:19:37.958Z,21.50
2023-01-18T17:22:06.369Z,26.08
2023-01-18T17:24:33.135Z,20.40
2023-01-18T17:27:00.653Z,17.33
2023-01-18T17:29:27.647Z,18.90
2023-01-18T17:31:54.266Z,18.95
2023-01-18T17:34:27.964Z,17.17
2023-01-18T17:36:55.939Z,15.70
2023-01-18T17:39:24.914Z,18.13
2023-01-18T17:41:58.715Z,17.27
2023-01-18T17:44:36.823Z,19.20
2023-01-18T17:47:04.220Z,18.23
2023-01-18T17:49:30.820Z,13.70
2023-01-18T17:51:57.534Z,12.88
2023-01-18T17:54:24.299Z,15.10
2023-01-18T17:56:50.995Z,13.35
2023-01-18T17:59:17.694Z,14.75
2023-01-18T18:01:44.454Z,14.27
2023-01-18T18:04:11.278Z,11.88
2023-01-18T18:06:46.057Z,13.25
2023-01-18T18:09:16.272Z,12.82
2023-01-18T18:11:43.671Z,10.82
2023-01-18T18:14:10.272Z,12.50
2023-01-18T18:16:43.243Z,10.68
2023-01-18T18:21:42.887Z,10.25
2023-01-18T18:24:09.698Z,8.13
2023-01-18T18:26:36.513Z,8.77
2023-01-18T18:29:03.252Z,8.30
2023-01-18T18:31:29.909Z,9.90
2023-01-18T18:33:56.605Z,9.48
2023-01-18T18:36:27.377Z,13.25
2023-01-18T18:38:54.312Z,10.82
2023-01-18T18:41:21.160Z,11.55
2023-01-18T18:43:48.229Z,11.30
2023-01-18T18:46:14.953Z,15.13
2023-01-18T18:48:41.574Z,16.20
2023-01-18T18:51:08.475Z,17.95
2023-01-18T18:53:39.609Z,13.45
2023-01-18T18:56:10.075Z,13.25
2023-01-18T18:58:37.775Z,13.50
2023-01-18T19:01:05.465Z,13.13
2023-01-18T19:03:32.557Z,12.40
2023-01-18T19:05:59.183Z,13.32
2023-01-18T19:08:25.820Z,15.48
2023-01-18T19:10:52.480Z,17.13
2023-01-18T19:13:19.306Z,14.98
2023-01-18T19:15:51.493Z,15.15
2023-01-18T19:18:18.329Z,16.65
2023-01-18T19:20:45.393Z,15.13
2023-01-18T19:23:12.420Z,18.15
2023-01-18T19:25:39.746Z,15.00
2023-01-18T19:28:06.390Z,15.05
2023-01-18T19:30:33.241Z,12.88
2023-01-18T19:33:00.548Z,14.23
2023-01-18T19:35:27.314Z,16.85
2023-01-18T19:37:54.734Z,14.25
2023-01-18T19:40:21.695Z,16.50
2023-01-18T19:42:59.824Z,14.43
2023-01-18T19:45:28.743Z,17.55
2023-01-18T19:47:57.486Z,16.73
2023-01-18T19:50:24.683Z,14.18
2023-01-18T19:52:51.328Z,16.15
2023-01-18T19:55:18.448Z,13.48
2023-01-18T19:57:45.105Z,14.05
2023-01-18T20:00:12.309Z,13.80
2023-01-18T20:02:40.404Z,15.40
2023-01-18T20:05:08.230Z,13.77
2023-01-18T20:07:37.286Z,15.38
2023-01-18T20:10:04.304Z,15.63
2023-01-18T20:12:32.300Z,15.07
2023-01-18T20:14:58.947Z,15.40
2023-01-18T20:17:26.024Z,14.98
2023-01-18T20:19:54.091Z,15.15
2023-01-18T20:22:21.539Z,16.65
2023-01-18T20:24:48.176Z,14.82
2023-01-18T20:27:16.868Z,14.63
2023-01-18T20:29:44.147Z,12.45
2023-01-18T20:32:17.150Z,14.05
2023-01-18T20:34:44.692Z,16.42
2023-01-18T20:37:12.720Z,16.73
2023-01-18T20:39:40.224Z,14.27
2023-01-18T20:42:06.916Z,16.67
2023-01-18T20:44:33.563Z,16.92
2023-01-18T20:47:00.440Z,16.40
2023-01-18T20:49:37.221Z,14.23
2023-01-18T20:52:05.228Z,15.93
2023-01-18T20:54:32.142Z,12.77
2023-01-18T20:56:59.948Z,18.98
2023-01-18T20:59:26.601Z,16.27
2023-01-18T21:01:53.441Z,14.15
2023-01-18T21:04:20.687Z,15.18
2023-01-18T21:06:49.680Z,11.98
2023-01-18T21:09:16.783Z,12.88
2023-01-18T21:11:43.648Z,12.73
2023-01-18T21:14:10.761Z,15.80
2023-01-18T21:16:37.506Z,14.88
2023-01-18T21:19:04.505Z,12.18
2023-01-18T21:21:31.825Z,14.10
2023-01-18T21:23:59.146Z,13.77
2023-01-18T21:26:25.872Z,14.10
2023-01-18T21:28:52.661Z,13.85
2023-01-18T21:31:19.387Z,15.98
2023-01-18T21:33:46.108Z,13.10
2023-01-18T21:36:14.974Z,19.75
2023-01-18T21:38:41.707Z,16.42
2023-01-18T21:41:28.880Z,15.50
2023-01-18T21:44:14.360Z,14.45
2023-01-18T21:46:48.845Z,15.80
2023-01-18T21:49:49.434Z,20.10
2023-01-18T21:52:39.472Z,13.48
2023-01-18T21:55:06.167Z,17.40
2023-01-18T21:57:32.757Z,14.63
2023-01-18T21:59:59.394Z,14.68
2023-01-18T22:02:26.161Z,17.73
2023-01-18T22:05:03.601Z,16.35
2023-01-18T22:07:33.092Z,15.25
2023-01-18T22:10:05.053Z,15.95
2023-01-18T22:12:34.802Z,13.43
2023-01-18T22:15:01.957Z,15.65
2023-01-18T22:19:56.660Z,15.93
2023-01-18T22:22:23.246Z,18.75
2023-01-18T22:24:49.827Z,15.23
2023-01-18T22:27:16.444Z,19.27
2023-01-18T22:29:43.169Z,19.13
2023-01-18T22:32:09.938Z,15.50
2023-01-18T22:34:36.572Z,13.70
2023-01-18T22:37:03.449Z,18.70
2023-01-18T22:39:30.131Z,19.15
2023-01-18T22:41:56.764Z,16.50
2023-01-18T22:44:23.394Z,13.82
2023-01-18T22:46:50.037Z,16.20
2023-01-18T22:49:16.720Z,17.33
2023-01-18T22:51:43.425Z,15.48
2023-01-18T22:54:10.251Z,16.10
2023-01-18T22:56:36.901Z,15.50
2023-01-18T22:59:03.520Z,15.45
2023-01-18T23:01:32.532Z,17.35
2023-01-18T23:04:04.117Z,17.70
2023-01-18T23:06:47.669Z,19.95
2023-01-18T23:09:16.010Z,17.92
2023-01-18T23:11:42.958Z,15.30
2023-01-18T23:14:28.224Z,17.13
2023-01-18T23:17:13.514Z,14.82
2023-01-18T23:19:40.145Z,16.77
2023-01-18T23:22:07.078Z,17.88
2023-01-18T23:24:35.567Z,15.23
2023-01-18T23:27:03.206Z,16.73
2023-01-18T23:29:29.999Z,19.17
2023-01-18T23:31:57.568Z,17.52
2023-01-18T23:34:25.167Z,15.15
2023-01-18T23:36:52.240Z,16.30
2023-01-18T23:39:37.576Z,16.15
2023-01-18T23:42:22.722Z,17.38
2023-01-18T23:45:08.016Z,16.70
2023-01-18T23:47:54.109Z,16.55
2023-01-18T23:50:39.989Z,19.50
2023-01-18T23:53:30.529Z,16.35
2023-01-18T23:55:57.832Z,21.73
2023-01-18T23:58:24.697Z,21.50
